createdAt,value
2023-05-17T00:01:56.841Z,97885.47
2023-05-17T00:05:02.435Z,97897.34
2023-05-17T00:08:09.365Z,97902.19
2023-05-17T00:11:18.021Z,97915.06
2023-05-17T00:14:24.685Z,97908.47
2023-05-17T00:17:30.322Z,97896.31
2023-05-17T00:20:37.015Z,97908.19
2023-05-17T00:23:42.531Z,97908.63
2023-05-17T00:26:51.994Z,97871.94
2023-05-17T00:29:57.539Z,97902.97
2023-05-17T00:33:04.584Z,97897.94
2023-05-17T00:36:10.543Z,97901.91
2023-05-17T00:39:16.986Z,97900.25
2023-05-17T00:42:25.384Z,97901.31
2023-05-17T00:45:32.064Z,97904.03
2023-05-17T00:48:38.038Z,97905.09
2023-05-17T00:51:44.941Z,97909.28
2023-05-17T00:54:50.572Z,97909.28
2023-05-17T00:58:00.700Z,97896.63
2023-05-17T01:01:08.684Z,97890.78
2023-05-17T01:04:16.300Z,97897.47
2023-05-17T01:07:22.259Z,97908.97
2023-05-17T01:10:42.393Z,97903.81
2023-05-17T01:14:01.961Z,97898.19
2023-05-17T01:17:19.912Z,97883.38
2023-05-17T01:20:34.511Z,97887.56
2023-05-17T01:24:01.925Z,97880.03
2023-05-17T01:27:15.890Z,97885.03
2023-05-17T01:30:26.498Z,97891.75
2023-05-17T01:33:34.447Z,97901.84
2023-05-17T01:36:43.156Z,97894.44
2023-05-17T01:39:50.208Z,97896.38
2023-05-17T01:43:13.460Z,97903.44
2023-05-17T01:46:31.479Z,97904.41
2023-05-17T01:49:43.668Z,97848.47
2023-05-17T01:52:57.188Z,97891.13
2023-05-17T01:56:10.771Z,97887.09
2023-05-17T01:59:27.076Z,97888.56
2023-05-17T02:02:33.773Z,97900.41
2023-05-17T02:05:40.142Z,97910.38
2023-05-17T02:08:46.493Z,97917.06
2023-05-17T02:11:52.994Z,97926.41
2023-05-17T02:15:01.667Z,97939.34
2023-05-17T02:18:08.611Z,97933.22
2023-05-17T02:21:14.273Z,97925.47
2023-05-17T02:24:20.639Z,97916.50
2023-05-17T02:27:26.361Z,97929.75
2023-05-17T02:30:36.223Z,97915.25
2023-05-17T02:33:41.915Z,97897.66
2023-05-17T02:36:48.855Z,97901.09
2023-05-17T02:39:54.498Z,97932.69
2023-05-17T02:43:01.107Z,97911.97
2023-05-17T02:46:09.560Z,97912.81
2023-05-17T02:49:16.657Z,97935.25
2023-05-17T02:52:22.172Z,97909.38
2023-05-17T02:55:29.020Z,97936.91
2023-05-17T02:58:34.931Z,97929.34
2023-05-17T03:01:44.290Z,97936.53
2023-05-17T03:04:50.241Z,97921.38
2023-05-17T03:07:57.617Z,97916.31
2023-05-17T03:11:04.202Z,97902.16
2023-05-17T03:14:10.633Z,97916.47
2023-05-17T03:17:18.939Z,97928.13
2023-05-17T03:20:25.625Z,97932.22
2023-05-17T03:23:31.174Z,97941.16
2023-05-17T03:26:39.787Z,97942.41
2023-05-17T03:29:47.661Z,97942.50
2023-05-17T03:32:57.170Z,97951.03
2023-05-17T03:36:03.188Z,97957.16
2023-05-17T03:39:09.951Z,97957.81
2023-05-17T03:42:18.538Z,97962.50
2023-05-17T03:45:25.389Z,97961.78
2023-05-17T03:48:36.024Z,97954.78
2023-05-17T03:51:43.577Z,97969.09
2023-05-17T03:54:49.093Z,97961.41
2023-05-17T03:57:56.209Z,97968.38
2023-05-17T04:01:03.711Z,97982.03
2023-05-17T04:04:14.352Z,97987.97
2023-05-17T04:07:20.699Z,97994.09
2023-05-17T04:10:27.480Z,97977.91
2023-05-17T04:13:33.027Z,98002.75
2023-05-17T04:16:39.482Z,98015.13
2023-05-17T04:19:47.965Z,98000.97
2023-05-17T04:22:57.042Z,98021.25
2023-05-17T04:26:07.074Z,97996.63
2023-05-17T04:29:18.692Z,98009.47
2023-05-17T04:32:24.449Z,98033.22
2023-05-17T04:35:33.941Z,98013.69
2023-05-17T04:38:40.332Z,98007.88
2023-05-17T04:41:50.690Z,98012.00
2023-05-17T04:44:58.114Z,98012.94
2023-05-17T04:48:06.267Z,98022.72
2023-05-17T04:51:14.594Z,98000.22
2023-05-17T04:54:21.598Z,98001.69
2023-05-17T04:57:28.013Z,98020.41
2023-05-17T05:00:40.321Z,98007.78
2023-05-17T05:03:47.497Z,98012.19
2023-05-17T05:06:56.830Z,98029.88
2023-05-17T05:10:04.178Z,98036.19
2023-05-17T05:13:11.806Z,98028.84
2023-05-17T05:16:18.479Z,98035.78
2023-05-17T05:19:25.419Z,98044.91
2023-05-17T05:22:35.085Z,98028.91
2023-05-17T05:25:41.692Z,98033.97
2023-05-17T05:28:47.614Z,98039.13
2023-05-17T05:31:54.233Z,98056.91
2023-05-17T05:35:02.699Z,98048.50
2023-05-17T05:38:12.349Z,98062.94
2023-05-17T05:41:18.375Z,98053.03
2023-05-17T05:44:26.025Z,98068.81
2023-05-17T05:47:35.270Z,98078.28
2023-05-17T05:50:41.816Z,98087.00
2023-05-17T05:53:53.377Z,98089.84
2023-05-17T05:57:01.121Z,98092.41
2023-05-17T06:00:09.311Z,98100.38
2023-05-17T06:03:20.274Z,98103.72
2023-05-17T06:06:26.099Z,98102.28
2023-05-17T06:09:36.462Z,98106.88
2023-05-17T06:12:42.166Z,98121.50
2023-05-17T06:15:49.326Z,98103.81
2023-05-17T06:18:55.124Z,98100.75
2023-05-17T06:22:02.877Z,98101.00
2023-05-17T06:25:14.993Z,98119.06
2023-05-17T06:28:21.519Z,98136.69
2023-05-17T06:31:28.359Z,98120.94
2023-05-17T06:34:34.951Z,98126.41
2023-05-17T06:37:40.573Z,98132.09
2023-05-17T06:40:51.246Z,98154.13
2023-05-17T06:43:56.832Z,98136.56
2023-05-17T06:47:06.295Z,98141.56
2023-05-17T06:50:12.980Z,98149.50
2023-05-17T06:53:19.477Z,98142.16
2023-05-17T06:56:28.722Z,98152.38
2023-05-17T06:59:38.013Z,98138.38
2023-05-17T07:02:44.571Z,98152.03
2023-05-17T07:05:58.486Z,98156.06
2023-05-17T07:09:04.271Z,98174.66
2023-05-17T07:12:14.353Z,98174.59
2023-05-17T07:15:19.976Z,98187.38
2023-05-17T07:18:26.520Z,98180.19
2023-05-17T07:21:32.324Z,98192.38
2023-05-17T07:24:39.101Z,98215.09
2023-05-17T07:27:47.423Z,98211.19
2023-05-17T07:30:54.306Z,98207.06
2023-05-17T07:34:00.154Z,98189.50
2023-05-17T07:37:07.537Z,98232.03
2023-05-17T07:40:14.797Z,98240.19
2023-05-17T07:43:24.240Z,98230.03
2023-05-17T07:46:30.306Z,98235.69
2023-05-17T07:49:37.132Z,98244.28
2023-05-17T07:52:43.029Z,98204.16
2023-05-17T07:55:49.858Z,98246.53
2023-05-17T07:58:59.719Z,98241.09
2023-05-17T08:02:06.411Z,98234.31
2023-05-17T08:05:13.126Z,98251.03
2023-05-17T08:08:24.063Z,97986.69
2023-05-17T08:11:29.838Z,98266.59
2023-05-17T08:14:39.119Z,98143.03
2023-05-17T08:17:44.964Z,98298.19
2023-05-17T08:20:54.229Z,98256.03
2023-05-17T08:24:02.781Z,97868.97
2023-05-17T08:27:11.869Z,98259.13
2023-05-17T08:30:28.962Z,98265.88
2023-05-17T08:33:36.932Z,98198.28
2023-05-17T08:36:42.842Z,98273.94
2023-05-17T08:39:50.054Z,98270.56
2023-05-17T08:42:56.431Z,98165.47
2023-05-17T08:46:06.509Z,98274.28
2023-05-17T08:49:18.341Z,98224.56
2023-05-17T08:52:25.957Z,98284.44
2023-05-17T08:55:36.548Z,98285.00
2023-05-17T09:02:00.048Z,98297.16
2023-05-17T09:05:07.320Z,98311.06
2023-05-17T09:08:14.454Z,98300.75
2023-05-17T09:11:30.051Z,98308.63
2023-05-17T09:14:38.944Z,98315.50
2023-05-17T09:17:56.059Z,98300.28
2023-05-17T09:21:07.137Z,98324.31
2023-05-17T09:24:14.186Z,98318.09
2023-05-17T09:27:22.033Z,98315.72
2023-05-17T09:30:31.863Z,98340.25
2023-05-17T09:33:47.699Z,98331.63
2023-05-17T09:36:57.469Z,98328.94
2023-05-17T09:40:07.012Z,98335.78
2023-05-17T09:43:15.638Z,98328.06
2023-05-17T09:46:23.245Z,98318.31
2023-05-17T09:49:33.096Z,98254.78
2023-05-17T09:52:40.427Z,98309.88
2023-05-17T09:55:52.310Z,98320.47
2023-05-17T09:58:58.424Z,98344.44
2023-05-17T10:02:13.128Z,98366.97
2023-05-17T10:05:24.622Z,98349.44
2023-05-17T10:08:34.103Z,98356.13
2023-05-17T10:11:43.367Z,98356.00
2023-05-17T10:14:51.495Z,98342.22
2023-05-17T10:17:58.286Z,98352.66
2023-05-17T10:21:10.975Z,98332.41
2023-05-17T10:24:18.340Z,98361.44
2023-05-17T10:27:26.000Z,98340.94
2023-05-17T10:30:32.772Z,98366.81
2023-05-17T10:33:43.067Z,98356.63
2023-05-17T10:36:53.620Z,98382.19
2023-05-17T10:40:01.081Z,98360.38
2023-05-17T10:43:12.709Z,98384.06
2023-05-17T10:46:22.840Z,98375.09
2023-05-17T10:49:30.151Z,98384.06
2023-05-17T10:52:49.072Z,98383.72
2023-05-17T10:55:55.900Z,98396.44
2023-05-17T10:59:24.877Z,98385.53
2023-05-17T11:02:32.382Z,98426.56
2023-05-17T11:05:39.099Z,98400.81
2023-05-17T11:09:11.779Z,98399.06
2023-05-17T11:12:19.347Z,98406.00
2023-05-17T11:15:29.492Z,98403.09
2023-05-17T11:18:51.202Z,98404.31
2023-05-17T11:21:57.058Z,98406.16
2023-05-17T11:25:12.795Z,98411.47
2023-05-17T11:28:24.715Z,98418.34
2023-05-17T11:31:35.271Z,98414.03
2023-05-17T11:34:41.968Z,98416.09
2023-05-17T11:37:49.694Z,98410.84
2023-05-17T11:41:01.586Z,98387.84
2023-05-17T11:44:08.483Z,98424.69
2023-05-17T11:47:14.081Z,98413.47
2023-05-17T11:50:21.525Z,98424.88
2023-05-17T11:53:30.416Z,98423.88
2023-05-17T11:56:45.590Z,98413.53
2023-05-17T11:59:51.539Z,98426.06
2023-05-17T12:02:58.209Z,98435.97
2023-05-17T12:06:13.469Z,98436.91
2023-05-17T12:09:21.463Z,98440.28
2023-05-17T12:12:30.046Z,98453.28
2023-05-17T12:15:37.576Z,98435.88
2023-05-17T12:18:45.530Z,98449.16
2023-05-17T12:21:52.445Z,98470.44
2023-05-17T12:24:58.150Z,98475.53
2023-05-17T12:28:22.849Z,98472.38
2023-05-17T12:31:35.661Z,98475.19
2023-05-17T12:34:42.757Z,58941.78
2023-05-17T12:37:49.016Z,58941.78
2023-05-17T12:40:56.029Z,58941.78
2023-05-17T12:44:14.800Z,58941.78
2023-05-17T12:47:22.277Z,58941.78
2023-05-17T12:50:33.523Z,58941.78
2023-05-17T12:53:42.070Z,58941.78
2023-05-17T12:56:48.361Z,58941.78
2023-05-17T12:59:58.883Z,58941.78
2023-05-17T13:03:05.831Z,58941.78
2023-05-17T13:06:12.682Z,58941.78
2023-05-17T13:09:19.297Z,58941.78
2023-05-17T13:12:28.100Z,58941.78
2023-05-17T13:15:37.504Z,58941.78
2023-05-17T13:18:55.982Z,58941.78
2023-05-17T13:22:01.698Z,58941.78
2023-05-17T13:25:09.702Z,58941.78
2023-05-17T13:28:15.832Z,58941.78
2023-05-17T13:31:25.133Z,58941.78
2023-05-17T13:34:30.928Z,58941.78
2023-05-17T13:37:38.228Z,58941.78
2023-05-17T13:40:44.002Z,58941.78
2023-05-17T13:43:50.495Z,58941.78
2023-05-17T13:46:59.159Z,58941.78
2023-05-17T13:50:07.483Z,58941.78
2023-05-17T13:53:13.424Z,58941.78
2023-05-17T13:56:20.524Z,58941.78
2023-05-17T13:59:26.567Z,58941.78
2023-05-17T14:02:35.939Z,58941.78
2023-05-17T14:05:42.114Z,58941.78
2023-05-17T14:08:49.942Z,58941.78
2023-05-17T14:11:55.616Z,58941.78
2023-05-17T14:15:02.126Z,58941.78
2023-05-17T14:18:13.007Z,58941.78
2023-05-17T14:21:19.598Z,58941.78
2023-05-17T14:24:25.328Z,58941.78
2023-05-17T14:27:31.875Z,58941.78
2023-05-17T14:30:37.556Z,58941.78
2023-05-17T14:33:47.053Z,58941.78
2023-05-17T14:36:52.740Z,58941.78
2023-05-17T14:43:10.929Z,58941.78
2023-05-17T14:46:17.840Z,58941.78
2023-05-17T14:49:26.310Z,58941.78
2023-05-17T14:52:32.832Z,58941.78
2023-05-17T14:55:38.520Z,58941.78
2023-05-17T14:58:45.044Z,58941.78
2023-05-17T15:01:50.962Z,58941.78
2023-05-17T15:05:03.907Z,58941.78
2023-05-17T15:08:11.264Z,58941.78
2023-05-17T15:11:17.952Z,58941.78
2023-05-17T15:14:25.300Z,58941.78
2023-05-17T15:17:32.507Z,58941.78
2023-05-17T15:20:42.965Z,58941.78
2023-05-17T15:23:51.167Z,58941.78
2023-05-17T15:26:57.185Z,58941.78
2023-05-17T15:30:04.052Z,58941.78
2023-05-17T15:33:10.160Z,58941.78
2023-05-17T15:36:19.863Z,58941.78
2023-05-17T15:39:25.984Z,58941.78
2023-05-17T15:42:32.753Z,58941.78
2023-05-17T15:45:38.517Z,58941.78
2023-05-17T15:48:45.124Z,58941.78
2023-05-17T15:51:54.027Z,58941.78
2023-05-17T15:55:01.203Z,58941.78
2023-05-17T15:58:09.789Z,58941.78
2023-05-17T16:01:16.780Z,58941.78
2023-05-17T16:04:22.544Z,58941.78
2023-05-17T16:07:32.102Z,58941.78
2023-05-17T16:10:38.833Z,58941.78
2023-05-17T16:13:45.913Z,58941.78
2023-05-17T16:16:51.556Z,58941.78
2023-05-17T16:19:58.347Z,58941.78
2023-05-17T16:23:07.629Z,58941.78
2023-05-17T16:26:14.910Z,58941.78
2023-05-17T16:29:20.697Z,58941.78
2023-05-17T16:32:27.399Z,58941.78
2023-05-17T16:35:33.133Z,58941.78
2023-05-17T16:38:42.658Z,58941.78
2023-05-17T16:41:48.279Z,58941.78
2023-05-17T16:44:54.980Z,58941.78
2023-05-17T16:48:00.928Z,58941.78
2023-05-17T16:51:08.209Z,58941.78
2023-05-17T16:54:16.904Z,58941.78
2023-05-17T16:57:23.410Z,58941.78
2023-05-17T17:00:30.395Z,58941.78
2023-05-17T17:03:37.354Z,58941.78
2023-05-17T17:06:43.553Z,58941.78
2023-05-17T17:09:52.860Z,58941.78
2023-05-17T17:12:58.698Z,58941.78
2023-05-17T17:16:06.223Z,58941.78
2023-05-17T17:19:12.431Z,58941.78
2023-05-17T17:22:19.302Z,58941.78
2023-05-17T17:25:28.392Z,58941.78
2023-05-17T17:28:34.858Z,58941.78
2023-05-17T17:31:40.874Z,58941.78
2023-05-17T17:34:47.460Z,58941.78
2023-05-17T17:37:53.414Z,58941.78
2023-05-17T17:41:02.762Z,58941.78
2023-05-17T17:44:08.755Z,58941.78
2023-05-17T17:47:15.418Z,58941.78
2023-05-17T17:50:21.197Z,58941.78
2023-05-17T17:53:29.122Z,58941.78
2023-05-17T17:56:37.897Z,58941.78
2023-05-17T17:59:44.753Z,58941.78
2023-05-17T18:02:50.556Z,58941.78
2023-05-17T18:05:57.223Z,58941.78
2023-05-17T18:09:03.136Z,58941.78
2023-05-17T18:12:13.053Z,58941.78
2023-05-17T18:15:18.841Z,58941.78
2023-05-17T18:18:25.422Z,58941.78
2023-05-17T18:21:32.379Z,58941.78
2023-05-17T18:24:39.183Z,58941.78
2023-05-17T18:27:47.983Z,58941.78
2023-05-17T18:30:54.608Z,58941.78
2023-05-17T18:34:00.292Z,58941.78
2023-05-17T18:37:07.509Z,58941.78
2023-05-17T18:40:14.880Z,58941.78
2023-05-17T18:43:24.277Z,58941.78
2023-05-17T18:46:29.982Z,58941.78
2023-05-17T18:49:36.801Z,58941.78
2023-05-17T18:52:42.872Z,58941.78
2023-05-17T18:55:49.535Z,58941.78
2023-05-17T18:59:01.633Z,58941.78
2023-05-17T19:02:12.449Z,58941.78
2023-05-17T19:05:18.320Z,58941.78
2023-05-17T19:08:24.880Z,58941.78
2023-05-17T19:11:31.849Z,58941.78
2023-05-17T19:14:41.669Z,58941.78
2023-05-17T19:17:47.438Z,58941.78
2023-05-17T19:20:54.204Z,58941.78
2023-05-17T19:24:00.923Z,58941.78
2023-05-17T19:27:08.142Z,58941.78
2023-05-17T19:30:16.907Z,58941.78
2023-05-17T19:33:23.505Z,58941.78
2023-05-17T19:36:29.480Z,58941.78
2023-05-17T19:39:36.707Z,58941.78
2023-05-17T19:42:42.631Z,58941.78
2023-05-17T19:45:52.044Z,58941.78
2023-05-17T19:48:57.720Z,58941.78
2023-05-17T19:52:04.962Z,58941.78
2023-05-17T19:55:10.800Z,58941.78
2023-05-17T19:58:17.342Z,58941.78
2023-05-17T20:01:25.858Z,58941.78
2023-05-17T20:04:32.382Z,58941.78
2023-05-17T20:07:38.288Z,58941.78
2023-05-17T20:10:45.396Z,58941.78
2023-05-17T20:13:51.809Z,58941.78
2023-05-17T20:17:02.777Z,58941.78
2023-05-17T20:20:10.136Z,58941.78
2023-05-17T20:23:16.937Z,58941.78
2023-05-17T20:26:26.165Z,58941.78
2023-05-17T20:29:33.276Z,58941.78
2023-05-17T20:32:42.188Z,58941.78
2023-05-17T20:35:48.884Z,58941.78
2023-05-17T20:38:55.191Z,58941.78
2023-05-17T20:42:02.362Z,58941.78
2023-05-17T20:45:11.602Z,58941.78
2023-05-17T20:48:22.528Z,58941.78
2023-05-17T20:51:29.262Z,58941.78
2023-05-17T20:54:35.938Z,58941.78
2023-05-17T20:57:42.271Z,58941.78
2023-05-17T21:00:49.093Z,58941.78
2023-05-17T21:03:58.451Z,58941.78
2023-05-17T21:07:05.193Z,58941.78
2023-05-17T21:10:12.686Z,58941.78
2023-05-17T21:13:21.952Z,58941.78
2023-05-17T21:16:27.512Z,58941.78
2023-05-17T21:19:36.834Z,58941.78
2023-05-17T21:22:42.389Z,58941.78
2023-05-17T21:25:49.429Z,58941.78
2023-05-17T21:28:55.170Z,58941.78
2023-05-17T21:32:01.730Z,58941.78
2023-05-17T21:35:11.116Z,58941.78
2023-05-17T21:38:17.798Z,58941.78
2023-05-17T21:41:23.450Z,58941.78
2023-05-17T21:44:30.240Z,58941.78
2023-05-17T21:47:36.258Z,58941.78
2023-05-17T21:50:45.869Z,58941.78
2023-05-17T21:53:52.853Z,58941.78
2023-05-17T21:56:59.383Z,58941.78
2023-05-17T22:00:05.215Z,58941.78
2023-05-17T22:03:13.486Z,58941.78
2023-05-17T22:06:23.098Z,58941.78
2023-05-17T22:09:29.686Z,58941.78
2023-05-17T22:12:35.516Z,58941.78
2023-05-17T22:15:43.112Z,58941.78
2023-05-17T22:18:52.661Z,58941.78
2023-05-17T22:22:02.282Z,58941.78
2023-05-17T22:25:09.495Z,58941.78
2023-05-17T22:28:16.052Z,58941.78
2023-05-17T22:31:23.061Z,58941.78
2023-05-17T22:34:29.596Z,58941.78
2023-05-17T22:37:38.192Z,58941.78
2023-05-17T22:40:44.782Z,58941.78
2023-05-17T22:43:50.796Z,58941.78
2023-05-17T22:46:58.074Z,58941.78
2023-05-17T22:50:03.927Z,58941.78
2023-05-17T22:53:16.314Z,58941.78
2023-05-17T22:56:21.941Z,58941.78
2023-05-17T22:59:28.763Z,58941.78
2023-05-17T23:02:34.535Z,58941.78
2023-05-17T23:05:41.771Z,58941.78
2023-05-17T23:08:50.435Z,58941.78
2023-05-17T23:11:56.855Z,58941.78
2023-05-17T23:15:02.807Z,58941.78
2023-05-17T23:18:09.415Z,58941.78
2023-05-17T23:21:15.099Z,58941.78
2023-05-17T23:24:26.054Z,58941.78
2023-05-17T23:27:31.663Z,58941.78
2023-05-17T23:30:38.763Z,58941.78
2023-05-17T23:33:44.675Z,58941.78
2023-05-17T23:36:51.144Z,58941.78
2023-05-17T23:39:59.567Z,58941.78
2023-05-17T23:43:06.129Z,58941.78
2023-05-17T23:46:13.958Z,58941.78
2023-05-17T23:49:20.458Z,58941.78
2023-05-17T23:52:26.890Z,58941.78
2023-05-17T23:55:36.391Z,58941.78
2023-05-17T23:58:42.053Z,58941.78
